Time;durP1;ratioP1;P1;durP2;ratioP2;P2;SDS_P1;SDS_P2;PMS_P1;PMS_P2;Temp;Humidity;BMP_temperature;BMP_pressure;BME280_temperature;BME280_humidity;BME280_pressure;Samples;Min_cycle;Max_cycle;Signal;HPM_P1;HPM_P2
2022/05/17 00:01:52;;;;;;;18.55;5.53;;;;;;;;;;5055053;28;20048;-51
2022/05/17 00:04:19;;;;;;;12.40;6.18;;;;;;;;;;5055224;28;20108;-51
2022/05/17 00:06:46;;;;;;;10.15;5.30;;;;;;;;;;5055193;28;20033;-51
2022/05/17 00:09:12;;;;;;;8.88;5.35;;;;;;;;;;5055252;28;20018;-51
2022/05/17 00:11:38;;;;;;;13.57;5.80;;;;;;;;;;5054885;28;20409;-52
2022/05/17 00:14:04;;;;;;;18.23;5.35;;;;;;;;;;5054902;28;20075;-51
2022/05/17 00:16:33;;;;;;;8.70;5.03;;;;;;;;;;5054867;28;20033;-51
2022/05/17 00:18:59;;;;;;;16.17;6.15;;;;;;;;;;5054101;28;20064;-52
2022/05/17 00:21:28;;;;;;;11.35;5.78;;;;;;;;;;5054672;28;20039;-51
2022/05/17 00:23:54;;;;;;;6.57;5.07;;;;;;;;;;5054885;28;20037;-53
2022/05/17 00:26:21;;;;;;;9.88;6.13;;;;;;;;;;5054810;28;20115;-51
2022/05/17 00:28:47;;;;;;;13.68;4.78;;;;;;;;;;5054747;28;20017;-53
2022/05/17 00:31:13;;;;;;;14.05;4.90;;;;;;;;;;5054620;28;20082;-53
2022/05/17 00:33:39;;;;;;;10.80;5.35;;;;;;;;;;5054717;28;20461;-53
2022/05/17 00:36:05;;;;;;;9.05;5.40;;;;;;;;;;5054554;28;20033;-53
2022/05/17 00:38:31;;;;;;;6.90;5.20;;;;;;;;;;5054818;28;20384;-53
2022/05/17 00:40:57;;;;;;;7.93;5.68;;;;;;;;;;5054696;28;20041;-52
2022/05/17 00:46:22;;;;;;;14.52;7.22;;;;;;;;;;5054552;28;20063;-52
2022/05/17 00:48:51;;;;;;;12.63;6.97;;;;;;;;;;5054693;28;20017;-52
2022/05/17 00:51:17;;;;;;;11.05;7.15;;;;;;;;;;5054051;28;20029;-52
2022/05/17 00:53:44;;;;;;;13.20;7.15;;;;;;;;;;5054680;28;20068;-51
2022/05/17 00:56:13;;;;;;;13.38;7.45;;;;;;;;;;5054029;28;20527;-52
2022/05/17 00:58:48;;;;;;;10.10;6.38;;;;;;;;;;5054190;28;20071;-52
2022/05/17 01:01:16;;;;;;;11.95;7.07;;;;;;;;;;5054131;28;20033;-51
2022/05/17 01:03:45;;;;;;;9.50;6.28;;;;;;;;;;5054051;28;20057;-52
2022/05/17 01:06:11;;;;;;;12.50;6.43;;;;;;;;;;5053874;28;20025;-53
2022/05/17 01:08:37;;;;;;;9.00;5.70;;;;;;;;;;5054118;28;20017;-53
2022/05/17 01:11:03;;;;;;;11.02;6.30;;;;;;;;;;5053781;28;20049;-52
2022/05/17 01:16:14;;;;;;;12.95;6.65;;;;;;;;;;5054205;28;20040;-52
2022/05/17 01:18:41;;;;;;;14.23;6.55;;;;;;;;;;5053790;28;20029;-52
2022/05/17 01:21:08;;;;;;;9.68;6.35;;;;;;;;;;5053359;28;20036;-51
2022/05/17 01:23:35;;;;;;;8.80;5.72;;;;;;;;;;5053704;28;20033;-53
2022/05/17 01:26:02;;;;;;;12.73;6.70;;;;;;;;;;5053950;28;20021;-52
2022/05/17 01:28:30;;;;;;;13.02;6.80;;;;;;;;;;5053728;28;20096;-53
2022/05/17 01:31:03;;;;;;;12.63;6.60;;;;;;;;;;5053496;28;20513;-53
2022/05/17 01:33:30;;;;;;;9.13;5.65;;;;;;;;;;5053504;28;20032;-53
2022/05/17 01:35:56;;;;;;;11.02;6.10;;;;;;;;;;5053530;28;20143;-52
2022/05/17 01:38:22;;;;;;;13.85;6.60;;;;;;;;;;5053598;28;20488;-52
2022/05/17 01:40:48;;;;;;;10.27;6.32;;;;;;;;;;5053704;28;20134;-52
2022/05/17 01:43:14;;;;;;;10.00;6.00;;;;;;;;;;5053614;28;20024;-52
2022/05/17 01:45:40;;;;;;;9.50;5.95;;;;;;;;;;5053481;28;20147;-52
2022/05/17 01:48:06;;;;;;;11.38;6.75;;;;;;;;;;5053820;28;20021;-53
2022/05/17 01:50:35;;;;;;;10.45;7.03;;;;;;;;;;5053025;28;20029;-52
2022/05/17 01:53:02;;;;;;;8.65;5.63;;;;;;;;;;5053611;28;20043;-54
2022/05/17 01:55:28;;;;;;;11.10;6.15;;;;;;;;;;5053386;28;20029;-52
2022/05/17 01:57:54;;;;;;;11.40;7.03;;;;;;;;;;5053301;28;20021;-52
2022/05/17 02:00:23;;;;;;;11.45;5.97;;;;;;;;;;5053293;28;20032;-52
2022/05/17 02:02:50;;;;;;;9.23;5.07;;;;;;;;;;5053248;28;20033;-52
2022/05/17 02:05:16;;;;;;;13.15;6.03;;;;;;;;;;5053167;28;20067;-53
2022/05/17 02:07:42;;;;;;;8.82;6.50;;;;;;;;;;5053134;28;20100;-53
2022/05/17 02:10:09;;;;;;;13.82;6.38;;;;;;;;;;5053224;28;20059;-51
2022/05/17 02:12:35;;;;;;;12.93;6.55;;;;;;;;;;5053499;28;20414;-52
2022/05/17 02:15:03;;;;;;;13.70;6.93;;;;;;;;;;5053435;28;20151;-52
2022/05/17 02:17:29;;;;;;;15.77;6.97;;;;;;;;;;5053120;28;20029;-52
2022/05/17 02:19:55;;;;;;;10.80;7.00;;;;;;;;;;5052889;28;20024;-52
2022/05/17 02:22:22;;;;;;;12.25;6.63;;;;;;;;;;5052969;28;20040;-52
2022/05/17 02:24:48;;;;;;;14.27;7.60;;;;;;;;;;5053216;28;20033;-51
2022/05/17 02:27:14;;;;;;;14.10;7.13;;;;;;;;;;5053099;28;20111;-51
2022/05/17 02:29:44;;;;;;;12.40;7.55;;;;;;;;;;5035719;28;20029;-52
2022/05/17 02:32:13;;;;;;;12.40;7.28;;;;;;;;;;5053072;28;20426;-53
2022/05/17 02:34:39;;;;;;;11.82;7.20;;;;;;;;;;5052730;28;20472;-52
2022/05/17 02:37:05;;;;;;;10.77;7.13;;;;;;;;;;5053059;28;20468;-52
2022/05/17 02:39:31;;;;;;;13.50;7.18;;;;;;;;;;5052928;28;20025;-52
2022/05/17 02:41:58;;;;;;;11.15;6.22;;;;;;;;;;5053763;28;20477;-52
2022/05/17 02:44:24;;;;;;;14.60;7.20;;;;;;;;;;5056891;28;20025;-52
2022/05/17 02:46:50;;;;;;;10.00;6.80;;;;;;;;;;5056856;28;20086;-52
2022/05/17 02:49:16;;;;;;;15.52;7.65;;;;;;;;;;5056653;28;20056;-52
2022/05/17 02:51:42;;;;;;;16.67;7.18;;;;;;;;;;5056251;28;20078;-52
2022/05/17 02:54:10;;;;;;;17.10;8.02;;;;;;;;;;5056557;28;20037;-52
2022/05/17 02:56:37;;;;;;;16.63;7.28;;;;;;;;;;5056385;28;20036;-51
2022/05/17 02:59:03;;;;;;;9.18;7.10;;;;;;;;;;5056423;28;20025;-53
2022/05/17 03:01:30;;;;;;;13.88;7.75;;;;;;;;;;5056514;28;20033;-52
2022/05/17 03:03:56;;;;;;;13.38;7.07;;;;;;;;;;5056336;28;20029;-52
2022/05/17 03:06:22;;;;;;;16.67;7.68;;;;;;;;;;5056020;28;20366;-53
2022/05/17 03:08:48;;;;;;;14.95;7.68;;;;;;;;;;5056358;28;20051;-53
2022/05/17 03:11:15;;;;;;;11.55;7.05;;;;;;;;;;5038218;28;20049;-52
2022/05/17 03:13:41;;;;;;;11.50;7.43;;;;;;;;;;5056115;28;20025;-53
2022/05/17 03:16:07;;;;;;;19.83;7.35;;;;;;;;;;5056332;28;20369;-53
2022/05/17 03:18:33;;;;;;;15.00;8.35;;;;;;;;;;5056094;28;20017;-53
2022/05/17 03:20:59;;;;;;;18.15;9.13;;;;;;;;;;5055679;28;20049;-52
2022/05/17 03:23:26;;;;;;;13.20;7.38;;;;;;;;;;5056032;28;20021;-52
2022/05/17 03:25:52;;;;;;;12.63;7.82;;;;;;;;;;5055836;28;20033;-52
2022/05/17 03:28:20;;;;;;;20.42;7.82;;;;;;;;;;5055992;28;20096;-52
2022/05/17 03:30:46;;;;;;;20.17;8.30;;;;;;;;;;5055820;28;20024;-53
2022/05/17 03:33:12;;;;;;;14.20;8.20;;;;;;;;;;5055957;28;20021;-53
2022/05/17 03:35:38;;;;;;;15.43;8.25;;;;;;;;;;5055624;28;20071;-52
2022/05/17 03:38:04;;;;;;;12.90;7.45;;;;;;;;;;5055923;28;20032;-52
2022/05/17 03:40:31;;;;;;;20.52;8.07;;;;;;;;;;5055602;28;20045;-53
2022/05/17 03:42:57;;;;;;;17.05;8.32;;;;;;;;;;5055639;28;20474;-53
2022/05/17 03:45:23;;;;;;;21.27;10.55;;;;;;;;;;5055513;28;20029;-52
2022/05/17 03:47:52;;;;;;;22.40;14.18;;;;;;;;;;5055676;28;20052;-52
2022/05/17 03:50:20;;;;;;;23.75;13.18;;;;;;;;;;5055293;28;20055;-52
2022/05/17 03:52:46;;;;;;;18.27;10.35;;;;;;;;;;5055765;28;20410;-53
2022/05/17 03:55:13;;;;;;;29.98;12.18;;;;;;;;;;5055319;28;20536;-53
2022/05/17 03:57:39;;;;;;;19.73;11.18;;;;;;;;;;5055168;28;20026;-52
2022/05/17 04:00:10;;;;;;;27.10;14.25;;;;;;;;;;5055183;28;20024;-52
2022/05/17 04:02:37;;;;;;;15.60;10.40;;;;;;;;;;5055133;28;20059;-53
2022/05/17 04:05:03;;;;;;;16.02;8.98;;;;;;;;;;5054992;28;20408;-53
2022/05/17 04:07:29;;;;;;;19.42;12.15;;;;;;;;;;5055044;28;20025;-53
2022/05/17 04:09:55;;;;;;;21.10;9.75;;;;;;;;;;5054994;28;20401;-53
2022/05/17 04:12:21;;;;;;;18.00;11.43;;;;;;;;;;5055047;28;20028;-53
2022/05/17 04:14:48;;;;;;;15.25;8.85;;;;;;;;;;5055192;28;20025;-52
2022/05/17 04:17:14;;;;;;;18.90;9.02;;;;;;;;;;5055335;28;20412;-53
2022/05/17 04:19:40;;;;;;;19.38;9.90;;;;;;;;;;5054854;28;20021;-53
2022/05/17 04:22:08;;;;;;;20.92;9.65;;;;;;;;;;5054890;28;20396;-52
2022/05/17 04:24:34;;;;;;;16.02;9.30;;;;;;;;;;5055030;28;20437;-52
2022/05/17 04:27:00;;;;;;;18.63;8.50;;;;;;;;;;5054993;28;20029;-54
2022/05/17 04:29:26;;;;;;;17.73;9.65;;;;;;;;;;5054832;28;20460;-53
2022/05/17 04:31:52;;;;;;;20.20;8.35;;;;;;;;;;5054712;28;20033;-51
2022/05/17 04:34:18;;;;;;;13.25;7.25;;;;;;;;;;5055127;28;20024;-53
2022/05/17 04:36:46;;;;;;;15.13;8.93;;;;;;;;;;5054487;28;20370;-54
2022/05/17 04:39:12;;;;;;;15.38;8.05;;;;;;;;;;5054619;28;20178;-53
2022/05/17 04:41:38;;;;;;;19.77;8.70;;;;;;;;;;5054621;28;20412;-54
2022/05/17 04:44:04;;;;;;;16.15;8.05;;;;;;;;;;5054803;28;20032;-53
2022/05/17 04:46:30;;;;;;;16.67;8.15;;;;;;;;;;5054499;28;20029;-54
2022/05/17 04:48:56;;;;;;;14.63;7.90;;;;;;;;;;5054224;28;20013;-54
2022/05/17 04:51:22;;;;;;;15.55;7.47;;;;;;;;;;5054582;28;20384;-54
2022/05/17 04:53:49;;;;;;;18.65;7.55;;;;;;;;;;5054447;28;20025;-53
2022/05/17 04:56:15;;;;;;;16.55;8.05;;;;;;;;;;5054202;28;20025;-53
2022/05/17 04:58:43;;;;;;;11.23;7.22;;;;;;;;;;5054575;28;20049;-53
2022/05/17 05:01:09;;;;;;;19.17;8.30;;;;;;;;;;5054197;28;20029;-54
2022/05/17 05:03:35;;;;;;;8.95;6.78;;;;;;;;;;5054350;28;20017;-54
2022/05/17 05:06:01;;;;;;;16.25;6.82;;;;;;;;;;5053400;28;20408;-54
2022/05/17 05:08:27;;;;;;;15.73;6.28;;;;;;;;;;5054215;28;20085;-53
2022/05/17 05:10:53;;;;;;;14.77;8.85;;;;;;;;;;5053976;28;20041;-53
2022/05/17 05:13:20;;;;;;;15.52;8.23;;;;;;;;;;5053949;28;20032;-54
2022/05/17 05:15:47;;;;;;;11.18;6.32;;;;;;;;;;5054173;28;20064;-53
2022/05/17 05:18:13;;;;;;;13.57;7.72;;;;;;;;;;5053980;28;20036;-53
2022/05/17 05:20:39;;;;;;;15.90;10.20;;;;;;;;;;5053629;28;20526;-53
2022/05/17 05:23:06;;;;;;;15.30;8.18;;;;;;;;;;5053883;28;20061;-53
2022/05/17 05:25:32;;;;;;;16.33;8.68;;;;;;;;;;5053777;28;20034;-53
2022/05/17 05:27:58;;;;;;;16.60;9.52;;;;;;;;;;5054010;28;20036;-53
2022/05/17 05:30:24;;;;;;;18.95;8.25;;;;;;;;;;5054051;28;20373;-49
2022/05/17 05:32:51;;;;;;;14.70;7.75;;;;;;;;;;5053631;28;20044;-48
2022/05/17 05:35:18;;;;;;;16.63;7.75;;;;;;;;;;5053469;28;20024;-47
2022/05/17 05:37:44;;;;;;;22.05;7.45;;;;;;;;;;5053426;28;20031;-49
2022/05/17 05:40:11;;;;;;;59.42;32.67;;;;;;;;;;5053426;28;20029;-48
2022/05/17 05:42:38;;;;;;;21.58;12.00;;;;;;;;;;5053694;28;20036;-48
2022/05/17 05:45:05;;;;;;;18.27;10.00;;;;;;;;;;5053544;28;20389;-48
2022/05/17 05:47:31;;;;;;;19.90;9.07;;;;;;;;;;5053431;28;20029;-48
2022/05/17 05:49:57;;;;;;;16.25;9.23;;;;;;;;;;5053454;28;20021;-48
2022/05/17 05:52:23;;;;;;;17.38;7.65;;;;;;;;;;5053017;28;20107;-48
2022/05/17 05:54:49;;;;;;;19.60;7.32;;;;;;;;;;5053708;28;20025;-49
2022/05/17 05:57:15;;;;;;;29.05;8.23;;;;;;;;;;5053531;28;20029;-49
2022/05/17 05:59:41;;;;;;;14.32;7.03;;;;;;;;;;5053568;28;20024;-49
2022/05/17 06:02:08;;;;;;;17.75;7.22;;;;;;;;;;5053155;28;20477;-50
2022/05/17 06:04:35;;;;;;;12.00;7.13;;;;;;;;;;5053335;28;20479;-49
2022/05/17 06:07:01;;;;;;;12.38;6.60;;;;;;;;;;5052981;28;20021;-49
2022/05/17 06:09:28;;;;;;;16.52;6.80;;;;;;;;;;5052910;28;20476;-49
2022/05/17 06:11:54;;;;;;;19.02;7.47;;;;;;;;;;5053266;28;20037;-49
2022/05/17 06:14:22;;;;;;;11.40;5.93;;;;;;;;;;5053172;28;20021;-49
2022/05/17 06:16:52;;;;;;;11.90;5.82;;;;;;;;;;5053358;28;20017;-49
2022/05/17 06:19:19;;;;;;;11.73;5.70;;;;;;;;;;5057101;28;20082;-49
2022/05/17 06:21:45;;;;;;;8.80;5.88;;;;;;;;;;5057125;28;20110;-49
2022/05/17 06:24:11;;;;;;;8.02;5.32;;;;;;;;;;5056949;28;20461;-49
2022/05/17 06:26:37;;;;;;;10.68;5.07;;;;;;;;;;5056946;28;20029;-49
2022/05/17 06:29:04;;;;;;;11.18;5.63;;;;;;;;;;5056922;28;20021;-49
2022/05/17 06:31:32;;;;;;;7.70;4.88;;;;;;;;;;5056800;28;20415;-49
2022/05/17 06:33:58;;;;;;;11.35;4.57;;;;;;;;;;5057004;28;20036;-49
2022/05/17 06:36:24;;;;;;;9.95;5.32;;;;;;;;;;5056538;28;20028;-49
2022/05/17 06:38:50;;;;;;;10.10;5.70;;;;;;;;;;5056773;28;20059;-49
2022/05/17 06:41:16;;;;;;;10.25;4.78;;;;;;;;;;5056655;28;20082;-49
2022/05/17 06:43:43;;;;;;;8.63;5.07;;;;;;;;;;5038539;28;20048;-49
2022/05/17 06:46:09;;;;;;;6.85;4.63;;;;;;;;;;5056534;28;20029;-49
2022/05/17 06:48:35;;;;;;;5.55;4.40;;;;;;;;;;5056629;28;20384;-49
2022/05/17 06:51:02;;;;;;;7.35;4.30;;;;;;;;;;5056588;28;20063;-49
2022/05/17 06:53:29;;;;;;;6.30;4.30;;;;;;;;;;5056669;28;20446;-49
2022/05/17 06:55:55;;;;;;;7.53;4.05;;;;;;;;;;5056465;28;20033;-49
2022/05/17 06:58:21;;;;;;;9.77;4.07;;;;;;;;;;5056750;28;20028;-49
2022/05/17 07:00:47;;;;;;;6.78;4.05;;;;;;;;;;5056786;28;20415;-49
2022/05/17 07:03:14;;;;;;;19.90;10.55;;;;;;;;;;5056508;28;20035;-48
2022/05/17 07:05:40;;;;;;;22.67;11.98;;;;;;;;;;5056225;28;20436;-48
2022/05/17 07:08:07;;;;;;;14.07;7.38;;;;;;;;;;5056096;28;20108;-49
2022/05/17 07:13:17;;;;;;;33.25;19.08;;;;;;;;;;5055271;28;20036;-49
2022/05/17 07:15:47;;;;;;;23.92;14.65;;;;;;;;;;5054916;28;20104;-47
2022/05/17 07:18:15;;;;;;;20.33;10.63;;;;;;;;;;5055129;28;20036;-48
2022/05/17 07:20:41;;;;;;;6.53;5.00;;;;;;;;;;5054659;28;20112;-48
2022/05/17 07:23:07;;;;;;;11.35;5.47;;;;;;;;;;5054792;28;20025;-48
2022/05/17 07:25:34;;;;;;;9.55;5.50;;;;;;;;;;5055050;28;20029;-47
2022/05/17 07:28:01;;;;;;;7.68;4.80;;;;;;;;;;5054558;28;20029;-49
2022/05/17 07:30:27;;;;;;;10.60;5.55;;;;;;;;;;5054873;28;20028;-48
2022/05/17 07:32:53;;;;;;;14.90;7.28;;;;;;;;;;5054844;28;20035;-49
2022/05/17 07:35:19;;;;;;;20.08;11.50;;;;;;;;;;5036724;28;20033;-48
2022/05/17 07:37:45;;;;;;;10.95;5.70;;;;;;;;;;5054541;28;20025;-49
2022/05/17 07:40:12;;;;;;;7.57;4.20;;;;;;;;;;5054723;28;20021;-49
2022/05/17 07:42:40;;;;;;;11.20;6.38;;;;;;;;;;5054859;28;20090;-49
2022/05/17 07:45:06;;;;;;;7.95;5.35;;;;;;;;;;5054457;28;20025;-48
2022/05/17 07:47:33;;;;;;;8.50;5.22;;;;;;;;;;5054479;28;20021;-48
2022/05/17 07:50:00;;;;;;;10.02;6.10;;;;;;;;;;5054473;28;20540;-48
2022/05/17 07:52:26;;;;;;;17.27;8.07;;;;;;;;;;5054274;28;20529;-48
2022/05/17 07:54:52;;;;;;;31.45;19.77;;;;;;;;;;5054338;28;20159;-48
2022/05/17 07:57:19;;;;;;;8.57;5.10;;;;;;;;;;5054266;28;20495;-48
2022/05/17 07:59:46;;;;;;;12.93;5.25;;;;;;;;;;5054369;28;20032;-48
2022/05/17 08:02:12;;;;;;;8.93;6.57;;;;;;;;;;5036454;28;20418;-48
2022/05/17 08:04:38;;;;;;;18.98;8.48;;;;;;;;;;5054089;28;20021;-49
2022/05/17 08:07:04;;;;;;;22.20;11.27;;;;;;;;;;5054109;28;20035;-48
2022/05/17 08:09:30;;;;;;;20.13;12.15;;;;;;;;;;5011688;28;1218418;-47
2022/05/17 08:11:57;;;;;;;15.32;9.60;;;;;;;;;;5055150;28;20029;-47
2022/05/17 08:14:23;;;;;;;18.10;8.30;;;;;;;;;;5055464;28;20050;-48
2022/05/17 08:16:49;;;;;;;23.67;12.45;;;;;;;;;;5055195;28;20530;-48
2022/05/17 08:19:15;;;;;;;20.23;9.75;;;;;;;;;;5055050;28;20072;-47
2022/05/17 08:21:42;;;;;;;17.80;9.60;;;;;;;;;;5055065;28;20143;-48
2022/05/17 08:24:08;;;;;;;27.95;14.45;;;;;;;;;;5055074;28;20469;-48
2022/05/17 08:29:19;;;;;;;10.80;6.97;;;;;;;;;;5055235;28;20024;-47
2022/05/17 08:33:14;;;;;;;9.30;6.07;;;;;;;;;;5054662;28;20412;-48
2022/05/17 08:34:31;;;;;;;7.20;4.40;;;;;;;;;;5054626;28;20033;-47
2022/05/17 08:36:57;;;;;;;12.10;4.57;;;;;;;;;;5054545;28;20029;-48
2022/05/17 08:39:26;;;;;;;7.32;4.82;;;;;;;;;;5054258;28;20108;-47
2022/05/17 08:41:58;;;;;;;18.67;11.60;;;;;;;;;;5054203;28;20033;-47
2022/05/17 08:44:43;;;;;;;27.20;15.90;;;;;;;;;;5054457;28;20017;-47
2022/05/17 08:47:13;;;;;;;26.50;16.58;;;;;;;;;;5054649;28;20032;-48
2022/05/17 08:49:39;;;;;;;36.88;22.13;;;;;;;;;;5054618;28;20079;-47
2022/05/17 08:52:08;;;;;;;16.73;10.48;;;;;;;;;;5054374;28;20124;-47
2022/05/17 08:54:39;;;;;;;13.10;7.57;;;;;;;;;;5054297;28;20078;-46
2022/05/17 08:57:05;;;;;;;;;;;;;;;;;;5054796;28;20029;-47
2022/05/17 08:59:34;;;;;;;7.85;5.45;;;;;;;;;;5054498;28;19904;-48
2022/05/17 09:02:11;;;;;;;6.35;4.85;;;;;;;;;;5054072;28;20170;-47
2022/05/17 09:04:41;;;;;;;4.80;4.22;;;;;;;;;;5054064;28;20021;-47
2022/05/17 09:07:16;;;;;;;7.00;4.10;;;;;;;;;;5054166;28;20029;-47
2022/05/17 09:09:45;;;;;;;11.60;7.82;;;;;;;;;;5053960;28;20044;-46
2022/05/17 09:12:20;;;;;;;5.38;4.10;;;;;;;;;;5053995;28;20032;-49
2022/05/17 09:14:48;;;;;;;3.95;3.55;;;;;;;;;;5054064;28;20021;-47
2022/05/17 09:17:15;;;;;;;4.50;3.40;;;;;;;;;;5053957;28;20029;-47
2022/05/17 09:19:42;;;;;;;5.35;3.63;;;;;;;;;;5053937;28;20025;-45
2022/05/17 09:22:11;;;;;;;6.35;3.47;;;;;;;;;;5053741;28;20055;-45
2022/05/17 09:24:41;;;;;;;3.88;3.03;;;;;;;;;;5053621;28;20025;-46
2022/05/17 09:27:12;;;;;;;12.60;7.75;;;;;;;;;;5053617;28;20025;-47
2022/05/17 09:29:48;;;;;;;14.82;8.20;;;;;;;;;;5053785;28;20523;-47
2022/05/17 09:32:25;;;;;;;17.75;9.02;;;;;;;;;;5053661;28;20029;-47
2022/05/17 09:35:09;;;;;;;22.83;11.60;;;;;;;;;;5053509;28;20055;-47
2022/05/17 09:37:38;;;;;;;11.80;6.75;;;;;;;;;;5053800;28;20036;-47
2022/05/17 09:40:06;;;;;;;10.40;6.85;;;;;;;;;;5053546;28;20029;-45
2022/05/17 09:42:42;;;;;;;4.70;3.92;;;;;;;;;;5053500;28;20064;-46
2022/05/17 09:45:14;;;;;;;7.10;3.75;;;;;;;;;;5053688;28;20501;-46
2022/05/17 09:47:54;;;;;;;6.10;4.15;;;;;;;;;;5053190;28;20070;-45
2022/05/17 09:53:07;;;;;;;6.10;4.22;;;;;;;;;;5053408;28;20063;-44
2022/05/17 09:55:34;;;;;;;4.97;3.33;;;;;;;;;;5053338;28;20079;-44
2022/05/17 09:58:20;;;;;;;3.28;2.58;;;;;;;;;;5053433;28;20427;-45
2022/05/17 10:00:50;;;;;;;7.25;3.42;;;;;;;;;;5036329;28;20179;-45
2022/05/17 10:03:19;;;;;;;10.35;3.22;;;;;;;;;;5053253;28;20021;-46
2022/05/17 10:05:45;;;;;;;7.07;3.35;;;;;;;;;;5053235;28;20107;-46
2022/05/17 10:08:14;;;;;;;8.40;5.35;;;;;;;;;;5053076;28;20461;-46
2022/05/17 10:11:01;;;;;;;16.02;8.75;;;;;;;;;;5053048;28;20424;-47
2022/05/17 10:13:32;;;;;;;24.48;15.90;;;;;;;;;;5053148;28;20052;-47
2022/05/17 10:16:01;;;;;;;21.77;11.98;;;;;;;;;;5053293;28;20025;-47
2022/05/17 10:18:36;;;;;;;18.88;9.88;;;;;;;;;;5053261;28;20021;-47
2022/05/17 10:21:09;;;;;;;8.70;4.20;;;;;;;;;;5053157;28;20036;-47
2022/05/17 10:23:39;;;;;;;10.88;6.50;;;;;;;;;;5052863;28;20040;-45
2022/05/17 10:26:28;;;;;;;8.63;3.38;;;;;;;;;;5053004;28;20032;-45
2022/05/17 10:29:00;;;;;;;6.32;4.55;;;;;;;;;;5053088;28;20444;-45
2022/05/17 10:31:35;;;;;;;5.95;4.20;;;;;;;;;;5052951;28;20080;-46
2022/05/17 10:34:04;;;;;;;10.68;4.50;;;;;;;;;;5053121;28;20021;-46
2022/05/17 10:36:39;;;;;;;15.52;6.63;;;;;;;;;;5052874;28;20025;-46
2022/05/17 10:39:12;;;;;;;9.88;6.50;;;;;;;;;;5052767;28;20052;-46
2022/05/17 10:41:38;;;;;;;14.95;6.28;;;;;;;;;;5052914;28;20056;-45
2022/05/17 10:44:04;;;;;;;15.27;7.72;;;;;;;;;;5052781;28;20028;-46
2022/05/17 10:46:31;;;;;;;11.55;5.35;;;;;;;;;;5052733;28;20037;-46
2022/05/17 10:49:00;;;;;;;5.30;3.17;;;;;;;;;;5053132;28;20025;-46
2022/05/17 10:51:40;;;;;;;8.13;4.18;;;;;;;;;;5052757;28;20029;-46
2022/05/17 10:54:07;;;;;;;7.68;3.20;;;;;;;;;;5052901;28;20488;-46
2022/05/17 10:56:54;;;;;;;10.65;3.75;;;;;;;;;;5052710;28;20036;-46
2022/05/17 10:59:25;;;;;;;6.15;3.28;;;;;;;;;;5052689;28;20020;-46
2022/05/17 11:02:04;;;;;;;5.80;3.33;;;;;;;;;;5052727;28;20358;-46
2022/05/17 11:04:36;;;;;;;4.85;3.80;;;;;;;;;;5055740;28;20023;-46
2022/05/17 11:07:09;;;;;;;8.43;3.88;;;;;;;;;;5056841;28;20168;-47
2022/05/17 11:09:50;;;;;;;7.55;4.10;;;;;;;;;;5054260;28;20503;-45
2022/05/17 11:12:18;;;;;;;4.78;2.97;;;;;;;;;;5056351;28;20140;-47
2022/05/17 11:14:44;;;;;;;6.53;4.32;;;;;;;;;;5038296;28;20381;-46
2022/05/17 11:17:29;;;;;;;7.93;3.13;;;;;;;;;;5056229;28;20013;-46
2022/05/17 11:20:04;;;;;;;7.03;4.60;;;;;;;;;;5055869;28;20032;-46
2022/05/17 11:22:48;;;;;;;6.47;2.90;;;;;;;;;;5056437;28;20404;-46
2022/05/17 11:25:36;;;;;;;8.23;4.47;;;;;;;;;;5056239;28;20090;-46
2022/05/17 11:28:21;;;;;;;5.57;2.90;;;;;;;;;;5056189;28;20021;-46
2022/05/17 11:30:48;;;;;;;4.50;3.10;;;;;;;;;;5056036;28;20554;-46
2022/05/17 11:33:33;;;;;;;7.57;3.60;;;;;;;;;;5055935;28;20021;-47
2022/05/17 11:35:59;;;;;;;9.27;2.83;;;;;;;;;;5056013;28;20029;-47
2022/05/17 11:38:37;;;;;;;8.98;4.38;;;;;;;;;;5055818;28;20100;-47
2022/05/17 11:41:07;;;;;;;7.75;3.30;;;;;;;;;;5054498;28;20037;-46
2022/05/17 11:43:42;;;;;;;6.72;4.07;;;;;;;;;;5054641;28;20032;-46
2022/05/17 11:46:43;;;;;;;19.23;11.15;;;;;;;;;;5055617;28;20095;-47
2022/05/17 11:49:12;;;;;;;16.33;10.50;;;;;;;;;;4954225;29;20407;-45
2022/05/17 11:51:59;;;;;;;41.05;25.35;;;;;;;;;;4955028;28;20499;-45
2022/05/17 11:54:40;;;;;;;26.83;17.13;;;;;;;;;;4898509;29;20047;-46
2022/05/17 11:57:09;;;;;;;12.15;7.88;;;;;;;;;;4898154;29;20041;-46
2022/05/17 11:59:42;;;;;;;9.07;5.88;;;;;;;;;;4898283;29;20049;-45
2022/05/17 12:02:09;;;;;;;8.27;5.03;;;;;;;;;;4897709;29;20040;-45
2022/05/17 12:04:37;;;;;;;10.73;6.10;;;;;;;;;;4898529;29;20056;-46
2022/05/17 12:07:19;;;;;;;11.15;5.82;;;;;;;;;;4898083;29;20055;-45
2022/05/17 12:09:53;;;;;;;10.38;5.78;;;;;;;;;;4898025;29;20083;-45
2022/05/17 12:12:36;;;;;;;7.25;5.38;;;;;;;;;;4894738;29;20040;-46
2022/05/17 12:15:21;;;;;;;29.85;13.77;;;;;;;;;;4888627;29;20085;-45
2022/05/17 12:17:56;;;;;;;17.88;7.05;;;;;;;;;;4890124;29;20029;-45
2022/05/17 12:20:40;;;;;;;8.70;5.20;;;;;;;;;;4892232;29;20032;-45
2022/05/17 12:23:13;;;;;;;7.57;5.22;;;;;;;;;;4927933;28;20093;-45
2022/05/17 12:25:41;;;;;;;10.00;5.68;;;;;;;;;;4973668;28;20120;-46
2022/05/17 12:28:30;;;;;;;9.90;5.25;;;;;;;;;;4973546;28;20076;-46
2022/05/17 12:31:02;;;;;;;7.25;5.20;;;;;;;;;;4994742;28;20037;-45
2022/05/17 12:33:29;;;;;;;6.00;4.10;;;;;;;;;;5054177;28;20025;-45
2022/05/17 12:36:10;;;;;;;4.75;3.72;;;;;;;;;;5054228;28;20013;-45
2022/05/17 12:44:16;;;;;;;6.13;3.67;;;;;;;;;;5052797;28;20052;-45
2022/05/17 12:46:45;;;;;;;7.53;4.03;;;;;;;;;;5053961;28;20021;-48
2022/05/17 12:49:17;;;;;;;5.05;3.05;;;;;;;;;;5051363;28;20021;-44
2022/05/17 12:51:44;;;;;;;5.03;2.70;;;;;;;;;;5054087;28;20420;-45
2022/05/17 12:54:13;;;;;;;5.28;3.00;;;;;;;;;;5051500;28;20465;-45
2022/05/17 12:56:43;;;;;;;5.05;2.70;;;;;;;;;;5053823;28;20064;-45
2022/05/17 12:59:10;;;;;;;2.95;2.50;;;;;;;;;;5053375;28;20021;-49
2022/05/17 13:01:38;;;;;;;4.95;3.10;;;;;;;;;;5053814;28;20026;-45
2022/05/17 13:04:12;;;;;;;5.20;3.20;;;;;;;;;;5053655;28;20025;-45
2022/05/17 13:06:44;;;;;;;3.72;2.92;;;;;;;;;;5052180;28;20029;-45
2022/05/17 13:09:20;;;;;;;7.35;4.35;;;;;;;;;;5050655;28;20021;-45
2022/05/17 13:11:46;;;;;;;4.38;3.53;;;;;;;;;;5051527;28;20124;-47
2022/05/17 13:14:23;;;;;;;3.20;2.55;;;;;;;;;;5053255;28;20052;-46
2022/05/17 13:16:51;;;;;;;6.57;2.92;;;;;;;;;;5053711;28;20036;-45
2022/05/17 13:19:19;;;;;;;5.35;3.05;;;;;;;;;;5053835;28;20078;-46
2022/05/17 13:21:51;;;;;;;24.63;19.60;;;;;;;;;;5052949;28;20033;-46
2022/05/17 13:24:35;;;;;;;16.55;14.18;;;;;;;;;;5053658;28;20025;-46
2022/05/17 13:27:24;;;;;;;6.15;5.03;;;;;;;;;;5053645;28;20052;-46
2022/05/17 13:29:54;;;;;;;38.85;30.80;;;;;;;;;;5053538;28;20029;-47
2022/05/17 13:32:23;;;;;;;14.23;10.15;;;;;;;;;;5053637;28;20496;-45
2022/05/17 13:35:07;;;;;;;10.40;7.45;;;;;;;;;;5053622;28;20036;-46
2022/05/17 13:37:33;;;;;;;22.92;16.23;;;;;;;;;;5053424;28;20512;-46
2022/05/17 13:40:02;;;;;;;25.40;17.58;;;;;;;;;;5053513;28;20112;-46
2022/05/17 13:42:28;;;;;;;24.08;15.02;;;;;;;;;;5053399;28;20112;-46
2022/05/17 13:44:58;;;;;;;12.40;7.85;;;;;;;;;;5053374;28;20538;-46
2022/05/17 13:47:27;;;;;;;62.40;37.33;;;;;;;;;;5053386;28;20029;-45
2022/05/17 13:49:58;;;;;;;27.45;18.98;;;;;;;;;;5053239;28;20037;-46
2022/05/17 13:52:40;;;;;;;25.40;18.58;;;;;;;;;;5053287;28;20052;-45
2022/05/17 13:55:13;;;;;;;18.75;12.13;;;;;;;;;;5053306;28;20090;-46
2022/05/17 13:57:41;;;;;;;17.42;9.82;;;;;;;;;;5053226;28;20074;-46
2022/05/17 14:00:13;;;;;;;37.63;25.85;;;;;;;;;;5053559;28;20021;-46
2022/05/17 14:02:41;;;;;;;19.92;13.27;;;;;;;;;;5053352;28;20041;-45
2022/05/17 14:05:18;;;;;;;28.63;18.70;;;;;;;;;;5053317;28;20451;-46
2022/05/17 14:07:56;;;;;;;33.08;20.50;;;;;;;;;;5053117;28;20370;-45
2022/05/17 14:13:09;;;;;;;28.23;18.77;;;;;;;;;;5053450;28;20082;-46
2022/05/17 14:15:37;;;;;;;16.13;10.35;;;;;;;;;;5053270;28;20067;-46
2022/05/17 14:18:04;;;;;;;5.10;3.53;;;;;;;;;;5053215;28;20021;-46
2022/05/17 14:20:30;;;;;;;12.57;9.70;;;;;;;;;;5053134;28;20056;-45
2022/05/17 14:22:58;;;;;;;11.15;6.70;;;;;;;;;;5052657;28;20463;-46
2022/05/17 14:25:25;;;;;;;16.58;7.78;;;;;;;;;;5053012;28;20400;-46
2022/05/17 14:27:54;;;;;;;16.75;5.85;;;;;;;;;;5053101;28;20412;-46
2022/05/17 14:30:20;;;;;;;15.38;7.57;;;;;;;;;;5053306;28;20432;-45
2022/05/17 14:32:47;;;;;;;6.05;4.28;;;;;;;;;;5053044;28;20107;-45
2022/05/17 14:35:13;;;;;;;8.73;4.57;;;;;;;;;;5053105;28;20100;-45
2022/05/17 14:37:39;;;;;;;16.02;8.10;;;;;;;;;;5052308;28;20017;-44
2022/05/17 14:40:05;;;;;;;19.60;11.35;;;;;;;;;;5056877;28;20542;-44
2022/05/17 14:42:35;;;;;;;52.08;38.22;;;;;;;;;;5056260;28;20128;-44
2022/05/17 14:45:01;;;;;;;23.40;17.30;;;;;;;;;;5056497;28;20025;-45
2022/05/17 14:47:27;;;;;;;14.25;10.05;;;;;;;;;;5053735;28;20051;-44
2022/05/17 14:49:57;;;;;;;10.93;6.03;;;;;;;;;;5056447;28;20021;-44
2022/05/17 14:52:23;;;;;;;6.72;4.38;;;;;;;;;;5056632;28;20025;-46
2022/05/17 14:54:49;;;;;;;6.00;4.22;;;;;;;;;;5061522;28;20020;-46
2022/05/17 14:57:16;;;;;;;6.15;3.42;;;;;;;;;;5075468;28;20074;-47
2022/05/17 14:59:42;;;;;;;3.88;2.72;;;;;;;;;;5056548;28;20108;-47
2022/05/17 15:02:12;;;;;;;5.68;3.50;;;;;;;;;;5056513;28;20505;-47
2022/05/17 15:04:40;;;;;;;4.57;3.13;;;;;;;;;;5065096;28;20091;-47
2022/05/17 15:07:13;;;;;;;6.50;2.88;;;;;;;;;;5055865;28;20032;-47